sensor_id;sensor_type;location;lat;lon;timestamp;P1;durP1;ratioP1;P2;durP2;ratioP2
10823;SDS011;39116;59.332;18.034;2024-02-16T00:00:18;35.35;;;17.63;;
10823;SDS011;39116;59.332;18.034;2024-02-16T00:02:40;43.33;;;18.42;;
10823;SDS011;39116;59.332;18.034;2024-02-16T00:05:04;36.67;;;17.13;;
10823;SDS011;39116;59.332;18.034;2024-02-16T00:07:27;37.65;;;17.70;;
10823;SDS011;39116;59.332;18.034;2024-02-16T00:09:49;35.08;;;16.00;;
10823;SDS011;39116;59.332;18.034;2024-02-16T00:12:10;35.92;;;15.95;;
10823;SDS011;39116;59.332;18.034;2024-02-16T00:14:32;39.65;;;18.10;;
10823;SDS011;39116;59.332;18.034;2024-02-16T00:16:53;32.10;;;16.85;;
10823;SDS011;39116;59.332;18.034;2024-02-16T00:19:15;37.92;;;16.80;;
10823;SDS011;39116;59.332;18.034;2024-02-16T00:21:38;34.17;;;16.60;;
10823;SDS011;39116;59.332;18.034;2024-02-16T00:24:02;35.42;;;15.93;;
10823;SDS011;39116;59.332;18.034;2024-02-16T00:26:24;34.05;;;15.88;;
10823;SDS011;39116;59.332;18.034;2024-02-16T00:28:45;30.00;;;15.73;;
10823;SDS011;39116;59.332;18.034;2024-02-16T00:31:07;33.45;;;16.50;;
10823;SDS011;39116;59.332;18.034;2024-02-16T00:33:29;31.73;;;15.95;;
10823;SDS011;39116;59.332;18.034;2024-02-16T00:35:51;33.50;;;16.55;;
10823;SDS011;39116;59.332;18.034;2024-02-16T00:38:14;33.90;;;16.08;;
10823;SDS011;39116;59.332;18.034;2024-02-16T00:40:36;34.28;;;15.93;;
10823;SDS011;39116;59.332;18.034;2024-02-16T00:43:03;30.35;;;14.60;;
10823;SDS011;39116;59.332;18.034;2024-02-16T00:45:25;30.92;;;14.57;;
10823;SDS011;39116;59.332;18.034;2024-02-16T00:47:47;29.50;;;14.35;;
10823;SDS011;39116;59.332;18.034;2024-02-16T00:50:09;33.08;;;14.60;;
10823;SDS011;39116;59.332;18.034;2024-02-16T00:52:31;32.47;;;15.82;;
10823;SDS011;39116;59.332;18.034;2024-02-16T00:54:54;31.58;;;15.35;;
10823;SDS011;39116;59.332;18.034;2024-02-16T00:57:15;31.25;;;15.40;;
10823;SDS011;39116;59.332;18.034;2024-02-16T00:59:37;30.17;;;14.93;;
10823;SDS011;39116;59.332;18.034;2024-02-16T01:01:59;26.85;;;13.30;;
10823;SDS011;39116;59.332;18.034;2024-02-16T01:04:20;26.45;;;13.55;;
10823;SDS011;39116;59.332;18.034;2024-02-16T01:06:43;28.65;;;14.02;;
10823;SDS011;39116;59.332;18.034;2024-02-16T01:09:04;29.80;;;14.85;;
10823;SDS011;39116;59.332;18.034;2024-02-16T01:11:27;28.10;;;13.68;;
10823;SDS011;39116;59.332;18.034;2024-02-16T01:13:49;30.20;;;13.70;;
10823;SDS011;39116;59.332;18.034;2024-02-16T01:16:11;29.35;;;14.10;;
10823;SDS011;39116;59.332;18.034;2024-02-16T01:18:32;28.38;;;13.35;;
10823;SDS011;39116;59.332;18.034;2024-02-16T01:20:56;25.25;;;13.43;;
10823;SDS011;39116;59.332;18.034;2024-02-16T01:23:18;30.08;;;13.65;;
10823;SDS011;39116;59.332;18.034;2024-02-16T01:25:40;28.40;;;14.15;;
10823;SDS011;39116;59.332;18.034;2024-02-16T01:28:04;30.00;;;13.75;;
10823;SDS011;39116;59.332;18.034;2024-02-16T01:30:25;28.65;;;13.25;;
10823;SDS011;39116;59.332;18.034;2024-02-16T01:32:47;24.50;;;11.82;;
10823;SDS011;39116;59.332;18.034;2024-02-16T01:35:09;29.38;;;12.43;;
10823;SDS011;39116;59.332;18.034;2024-02-16T01:37:31;32.35;;;12.88;;
10823;SDS011;39116;59.332;18.034;2024-02-16T01:39:52;24.13;;;12.73;;
10823;SDS011;39116;59.332;18.034;2024-02-16T01:42:14;28.35;;;12.27;;
10823;SDS011;39116;59.332;18.034;2024-02-16T01:44:37;29.10;;;13.82;;
10823;SDS011;39116;59.332;18.034;2024-02-16T01:46:59;26.67;;;12.48;;
10823;SDS011;39116;59.332;18.034;2024-02-16T01:49:21;32.33;;;12.40;;
10823;SDS011;39116;59.332;18.034;2024-02-16T01:51:43;24.60;;;12.02;;
10823;SDS011;39116;59.332;18.034;2024-02-16T01:54:06;27.75;;;13.23;;
10823;SDS011;39116;59.332;18.034;2024-02-16T01:56:27;23.25;;;12.23;;
10823;SDS011;39116;59.332;18.034;2024-02-16T01:58:49;24.52;;;11.95;;
10823;SDS011;39116;59.332;18.034;2024-02-16T02:03:42;24.77;;;12.98;;
10823;SDS011;39116;59.332;18.034;2024-02-16T02:06:05;24.52;;;12.48;;
10823;SDS011;39116;59.332;18.034;2024-02-16T02:08:26;25.05;;;11.95;;
10823;SDS011;39116;59.332;18.034;2024-02-16T02:10:48;23.25;;;11.20;;
10823;SDS011;39116;59.332;18.034;2024-02-16T02:13:10;19.55;;;11.43;;
10823;SDS011;39116;59.332;18.034;2024-02-16T02:15:31;22.75;;;11.73;;
10823;SDS011;39116;59.332;18.034;2024-02-16T02:17:53;20.33;;;11.13;;
10823;SDS011;39116;59.332;18.034;2024-02-16T02:20:17;23.80;;;11.02;;
10823;SDS011;39116;59.332;18.034;2024-02-16T02:22:40;22.88;;;11.82;;
10823;SDS011;39116;59.332;18.034;2024-02-16T02:25:01;21.50;;;12.27;;
10823;SDS011;39116;59.332;18.034;2024-02-16T02:27:23;21.10;;;11.75;;
10823;SDS011;39116;59.332;18.034;2024-02-16T02:29:45;17.25;;;10.45;;
10823;SDS011;39116;59.332;18.034;2024-02-16T02:32:06;19.15;;;10.68;;
10823;SDS011;39116;59.332;18.034;2024-02-16T02:34:28;17.55;;;10.60;;
10823;SDS011;39116;59.332;18.034;2024-02-16T02:36:50;22.42;;;12.23;;
10823;SDS011;39116;59.332;18.034;2024-02-16T02:39:13;20.67;;;11.65;;
10823;SDS011;39116;59.332;18.034;2024-02-16T02:41:35;17.63;;;10.48;;
10823;SDS011;39116;59.332;18.034;2024-02-16T02:43:57;17.80;;;10.07;;
10823;SDS011;39116;59.332;18.034;2024-02-16T02:46:18;16.85;;;10.60;;
10823;SDS011;39116;59.332;18.034;2024-02-16T02:48:40;15.35;;;9.57;;
10823;SDS011;39116;59.332;18.034;2024-02-16T02:51:02;16.77;;;10.65;;
10823;SDS011;39116;59.332;18.034;2024-02-16T02:53:23;14.43;;;10.27;;
10823;SDS011;39116;59.332;18.034;2024-02-16T02:55:48;16.52;;;10.05;;
10823;SDS011;39116;59.332;18.034;2024-02-16T02:58:09;13.60;;;9.35;;
10823;SDS011;39116;59.332;18.034;2024-02-16T03:00:31;13.15;;;8.98;;
10823;SDS011;39116;59.332;18.034;2024-02-16T03:02:52;13.90;;;9.90;;
10823;SDS011;39116;59.332;18.034;2024-02-16T03:05:14;12.52;;;9.35;;
10823;SDS011;39116;59.332;18.034;2024-02-16T03:07:36;12.20;;;9.25;;
10823;SDS011;39116;59.332;18.034;2024-02-16T03:09:58;12.45;;;8.90;;
10823;SDS011;39116;59.332;18.034;2024-02-16T03:12:21;11.57;;;8.63;;
10823;SDS011;39116;59.332;18.034;2024-02-16T03:14:44;11.20;;;8.38;;
10823;SDS011;39116;59.332;18.034;2024-02-16T03:17:05;11.75;;;8.93;;
10823;SDS011;39116;59.332;18.034;2024-02-16T03:19:27;11.35;;;8.55;;
10823;SDS011;39116;59.332;18.034;2024-02-16T03:21:48;10.23;;;8.00;;
10823;SDS011;39116;59.332;18.034;2024-02-16T03:24:10;10.65;;;8.13;;
10823;SDS011;39116;59.332;18.034;2024-02-16T03:26:32;11.02;;;8.23;;
10823;SDS011;39116;59.332;18.034;2024-02-16T03:28:55;12.38;;;8.20;;
10823;SDS011;39116;59.332;18.034;2024-02-16T03:31:17;10.73;;;7.80;;
10823;SDS011;39116;59.332;18.034;2024-02-16T03:33:38;11.35;;;8.70;;
10823;SDS011;39116;59.332;18.034;2024-02-16T03:35:59;10.60;;;8.15;;
10823;SDS011;39116;59.332;18.034;2024-02-16T03:38:21;11.98;;;7.97;;
10823;SDS011;39116;59.332;18.034;2024-02-16T03:40:43;10.13;;;7.95;;
10823;SDS011;39116;59.332;18.034;2024-02-16T03:43:04;11.13;;;8.30;;
10823;SDS011;39116;59.332;18.034;2024-02-16T03:45:27;11.48;;;8.63;;
10823;SDS011;39116;59.332;18.034;2024-02-16T03:47:49;10.75;;;7.80;;
10823;SDS011;39116;59.332;18.034;2024-02-16T03:50:12;9.18;;;7.10;;
10823;SDS011;39116;59.332;18.034;2024-02-16T03:52:34;11.38;;;7.65;;
10823;SDS011;39116;59.332;18.034;2024-02-16T03:54:56;11.57;;;8.10;;
10823;SDS011;39116;59.332;18.034;2024-02-16T03:57:18;11.82;;;7.78;;
10823;SDS011;39116;59.332;18.034;2024-02-16T03:59:39;9.45;;;7.53;;
10823;SDS011;39116;59.332;18.034;2024-02-16T04:02:03;11.38;;;7.78;;
10823;SDS011;39116;59.332;18.034;2024-02-16T04:04:24;10.50;;;7.40;;
10823;SDS011;39116;59.332;18.034;2024-02-16T04:06:47;8.68;;;6.80;;
10823;SDS011;39116;59.332;18.034;2024-02-16T04:09:09;9.00;;;6.70;;
10823;SDS011;39116;59.332;18.034;2024-02-16T04:11:30;8.82;;;6.90;;
10823;SDS011;39116;59.332;18.034;2024-02-16T04:13:52;8.57;;;6.65;;
10823;SDS011;39116;59.332;18.034;2024-02-16T04:16:14;8.45;;;6.30;;
10823;SDS011;39116;59.332;18.034;2024-02-16T04:18:37;9.38;;;7.03;;
10823;SDS011;39116;59.332;18.034;2024-02-16T04:20:58;10.63;;;7.18;;
10823;SDS011;39116;59.332;18.034;2024-02-16T04:23:20;7.40;;;6.10;;
10823;SDS011;39116;59.332;18.034;2024-02-16T04:25:42;7.45;;;6.07;;
10823;SDS011;39116;59.332;18.034;2024-02-16T04:28:02;7.88;;;6.07;;
10823;SDS011;39116;59.332;18.034;2024-02-16T04:30:24;9.50;;;6.07;;
10823;SDS011;39116;59.332;18.034;2024-02-16T04:32:46;7.68;;;5.68;;
10823;SDS011;39116;59.332;18.034;2024-02-16T04:35:10;7.32;;;5.50;;
10823;SDS011;39116;59.332;18.034;2024-02-16T04:37:32;7.97;;;5.47;;
10823;SDS011;39116;59.332;18.034;2024-02-16T04:39:54;6.47;;;5.72;;
10823;SDS011;39116;59.332;18.034;2024-02-16T04:42:16;6.60;;;5.75;;
10823;SDS011;39116;59.332;18.034;2024-02-16T04:44:37;6.60;;;5.38;;
10823;SDS011;39116;59.332;18.034;2024-02-16T04:46:59;5.25;;;4.75;;
10823;SDS011;39116;59.332;18.034;2024-02-16T04:49:21;7.85;;;4.65;;
10823;SDS011;39116;59.332;18.034;2024-02-16T04:51:45;5.85;;;4.60;;
10823;SDS011;39116;59.332;18.034;2024-02-16T04:54:07;5.18;;;4.03;;
10823;SDS011;39116;59.332;18.034;2024-02-16T04:56:29;5.80;;;4.78;;
10823;SDS011;39116;59.332;18.034;2024-02-16T04:58:50;5.63;;;4.53;;
10823;SDS011;39116;59.332;18.034;2024-02-16T05:01:12;5.40;;;4.55;;
10823;SDS011;39116;59.332;18.034;2024-02-16T05:03:34;4.93;;;4.40;;
10823;SDS011;39116;59.332;18.034;2024-02-16T05:05:55;4.28;;;3.72;;
10823;SDS011;39116;59.332;18.034;2024-02-16T05:08:19;5.20;;;3.83;;
10823;SDS011;39116;59.332;18.034;2024-02-16T05:10:42;4.88;;;3.88;;
10823;SDS011;39116;59.332;18.034;2024-02-16T05:13:04;4.78;;;3.92;;
10823;SDS011;39116;59.332;18.034;2024-02-16T05:15:26;4.13;;;3.40;;
10823;SDS011;39116;59.332;18.034;2024-02-16T05:17:48;4.18;;;3.78;;
10823;SDS011;39116;59.332;18.034;2024-02-16T05:20:11;4.43;;;4.03;;
10823;SDS011;39116;59.332;18.034;2024-02-16T05:22:35;4.07;;;3.38;;
10823;SDS011;39116;59.332;18.034;2024-02-16T05:24:58;3.97;;;3.58;;
10823;SDS011;39116;59.332;18.034;2024-02-16T05:27:20;4.35;;;3.67;;
10823;SDS011;39116;59.332;18.034;2024-02-16T05:29:41;4.22;;;3.83;;
10823;SDS011;39116;59.332;18.034;2024-02-16T05:32:04;3.83;;;3.30;;
10823;SDS011;39116;59.332;18.034;2024-02-16T05:34:26;3.60;;;3.30;;
10823;SDS011;39116;59.332;18.034;2024-02-16T05:36:47;3.92;;;3.40;;
10823;SDS011;39116;59.332;18.034;2024-02-16T05:39:08;4.63;;;3.28;;
10823;SDS011;39116;59.332;18.034;2024-02-16T05:41:41;4.18;;;3.40;;
10823;SDS011;39116;59.332;18.034;2024-02-16T05:44:03;3.90;;;3.40;;
10823;SDS011;39116;59.332;18.034;2024-02-16T05:46:25;3.70;;;3.40;;
10823;SDS011;39116;59.332;18.034;2024-02-16T05:48:47;3.38;;;3.08;;
10823;SDS011;39116;59.332;18.034;2024-02-16T05:51:09;3.30;;;3.00;;
10823;SDS011;39116;59.332;18.034;2024-02-16T05:53:32;3.33;;;3.03;;
10823;SDS011;39116;59.332;18.034;2024-02-16T05:55:54;3.40;;;3.10;;
10823;SDS011;39116;59.332;18.034;2024-02-16T05:58:17;3.30;;;3.00;;
10823;SDS011;39116;59.332;18.034;2024-02-16T06:00:39;3.25;;;2.95;;
10823;SDS011;39116;59.332;18.034;2024-02-16T06:03:02;3.42;;;2.88;;
10823;SDS011;39116;59.332;18.034;2024-02-16T06:05:24;3.50;;;3.20;;
10823;SDS011;39116;59.332;18.034;2024-02-16T06:07:46;3.22;;;2.90;;
10823;SDS011;39116;59.332;18.034;2024-02-16T06:10:08;2.85;;;2.63;;
10823;SDS011;39116;59.332;18.034;2024-02-16T06:12:30;3.35;;;3.00;;
10823;SDS011;39116;59.332;18.034;2024-02-16T06:14:53;3.03;;;2.72;;
10823;SDS011;39116;59.332;18.034;2024-02-16T06:17:16;3.28;;;2.80;;
10823;SDS011;39116;59.332;18.034;2024-02-16T06:19:38;2.90;;;2.60;;
10823;SDS011;39116;59.332;18.034;2024-02-16T06:22:00;4.22;;;2.70;;
10823;SDS011;39116;59.332;18.034;2024-02-16T06:24:22;3.53;;;2.45;;
10823;SDS011;39116;59.332;18.034;2024-02-16T06:26:44;2.60;;;2.38;;
10823;SDS011;39116;59.332;18.034;2024-02-16T06:29:05;2.63;;;2.28;;
10823;SDS011;39116;59.332;18.034;2024-02-16T06:31:28;5.68;;;2.47;;
10823;SDS011;39116;59.332;18.034;2024-02-16T06:33:50;2.65;;;2.45;;
10823;SDS011;39116;59.332;18.034;2024-02-16T06:36:12;2.45;;;2.20;;
10823;SDS011;39116;59.332;18.034;2024-02-16T06:38:34;2.53;;;2.17;;
10823;SDS011;39116;59.332;18.034;2024-02-16T06:40:55;2.30;;;2.10;;
10823;SDS011;39116;59.332;18.034;2024-02-16T06:43:17;2.40;;;1.92;;
10823;SDS011;39116;59.332;18.034;2024-02-16T06:45:38;3.05;;;2.00;;
10823;SDS011;39116;59.332;18.034;2024-02-16T06:48:02;1.90;;;1.80;;
10823;SDS011;39116;59.332;18.034;2024-02-16T06:50:23;1.70;;;1.60;;
10823;SDS011;39116;59.332;18.034;2024-02-16T06:52:45;2.42;;;1.90;;
10823;SDS011;39116;59.332;18.034;2024-02-16T06:55:06;2.00;;;1.80;;
10823;SDS011;39116;59.332;18.034;2024-02-16T06:57:28;2.10;;;1.85;;
10823;SDS011;39116;59.332;18.034;2024-02-16T06:59:51;1.85;;;1.73;;
10823;SDS011;39116;59.332;18.034;2024-02-16T07:02:13;2.22;;;1.90;;
10823;SDS011;39116;59.332;18.034;2024-02-16T07:04:39;1.73;;;1.63;;
10823;SDS011;39116;59.332;18.034;2024-02-16T07:07:00;1.90;;;1.70;;
10823;SDS011;39116;59.332;18.034;2024-02-16T07:09:24;1.90;;;1.77;;
10823;SDS011;39116;59.332;18.034;2024-02-16T07:11:45;1.80;;;1.70;;
10823;SDS011;39116;59.332;18.034;2024-02-16T07:14:10;1.90;;;1.80;;
10823;SDS011;39116;59.332;18.034;2024-02-16T07:16:33;2.50;;;1.90;;
10823;SDS011;39116;59.332;18.034;2024-02-16T07:18:55;1.70;;;1.60;;
10823;SDS011;39116;59.332;18.034;2024-02-16T07:21:19;1.70;;;1.60;;
10823;SDS011;39116;59.332;18.034;2024-02-16T07:23:42;1.75;;;1.60;;
10823;SDS011;39116;59.332;18.034;2024-02-16T07:26:04;1.70;;;1.60;;
10823;SDS011;39116;59.332;18.034;2024-02-16T07:28:25;1.90;;;1.70;;
10823;SDS011;39116;59.332;18.034;2024-02-16T07:30:47;2.97;;;1.85;;
10823;SDS011;39116;59.332;18.034;2024-02-16T07:33:09;1.83;;;1.63;;
10823;SDS011;39116;59.332;18.034;2024-02-16T07:35:31;1.60;;;1.42;;
10823;SDS011;39116;59.332;18.034;2024-02-16T07:37:54;1.73;;;1.55;;
10823;SDS011;39116;59.332;18.034;2024-02-16T07:40:16;3.50;;;1.60;;
10823;SDS011;39116;59.332;18.034;2024-02-16T07:42:38;1.88;;;1.70;;
10823;SDS011;39116;59.332;18.034;2024-02-16T07:45:02;1.55;;;1.45;;
10823;SDS011;39116;59.332;18.034;2024-02-16T07:47:24;1.92;;;1.50;;
10823;SDS011;39116;59.332;18.034;2024-02-16T07:49:47;2.08;;;1.70;;
10823;SDS011;39116;59.332;18.034;2024-02-16T07:52:09;1.83;;;1.73;;
10823;SDS011;39116;59.332;18.034;2024-02-16T07:54:32;2.00;;;1.80;;
10823;SDS011;39116;59.332;18.034;2024-02-16T07:56:54;2.40;;;1.55;;
10823;SDS011;39116;59.332;18.034;2024-02-16T07:59:16;2.35;;;1.90;;
10823;SDS011;39116;59.332;18.034;2024-02-16T08:01:39;2.30;;;1.75;;
10823;SDS011;39116;59.332;18.034;2024-02-16T08:04:01;2.30;;;1.70;;
10823;SDS011;39116;59.332;18.034;2024-02-16T08:06:24;2.22;;;1.73;;
10823;SDS011;39116;59.332;18.034;2024-02-16T08:08:47;1.50;;;1.40;;
10823;SDS011;39116;59.332;18.034;2024-02-16T08:11:10;3.00;;;1.50;;
10823;SDS011;39116;59.332;18.034;2024-02-16T08:13:31;2.22;;;1.80;;
10823;SDS011;39116;59.332;18.034;2024-02-16T08:15:53;2.95;;;1.60;;
10823;SDS011;39116;59.332;18.034;2024-02-16T08:18:15;1.40;;;1.30;;
10823;SDS011;39116;59.332;18.034;2024-02-16T08:20:38;1.50;;;1.30;;
10823;SDS011;39116;59.332;18.034;2024-02-16T08:23:00;1.75;;;1.48;;
10823;SDS011;39116;59.332;18.034;2024-02-16T08:25:21;1.60;;;1.50;;
10823;SDS011;39116;59.332;18.034;2024-02-16T08:27:44;1.42;;;1.27;;
10823;SDS011;39116;59.332;18.034;2024-02-16T08:30:06;2.08;;;1.58;;
10823;SDS011;39116;59.332;18.034;2024-02-16T08:32:29;3.00;;;1.30;;
10823;SDS011;39116;59.332;18.034;2024-02-16T08:34:52;2.40;;;1.25;;
10823;SDS011;39116;59.332;18.034;2024-02-16T08:37:16;2.65;;;1.50;;
10823;SDS011;39116;59.332;18.034;2024-02-16T08:39:37;2.65;;;1.48;;
10823;SDS011;39116;59.332;18.034;2024-02-16T08:41:59;1.60;;;1.30;;
10823;SDS011;39116;59.332;18.034;2024-02-16T08:44:22;1.98;;;1.35;;
10823;SDS011;39116;59.332;18.034;2024-02-16T08:46:44;1.75;;;1.48;;
10823;SDS011;39116;59.332;18.034;2024-02-16T08:49:06;1.95;;;1.35;;
10823;SDS011;39116;59.332;18.034;2024-02-16T08:51:29;1.65;;;1.33;;
10823;SDS011;39116;59.332;18.034;2024-02-16T08:53:52;2.72;;;1.20;;
10823;SDS011;39116;59.332;18.034;2024-02-16T08:56:14;1.90;;;1.30;;
10823;SDS011;39116;59.332;18.034;2024-02-16T08:58:36;3.22;;;1.20;;
10823;SDS011;39116;59.332;18.034;2024-02-16T09:00:59;1.55;;;1.30;;
10823;SDS011;39116;59.332;18.034;2024-02-16T09:03:20;1.20;;;1.10;;
10823;SDS011;39116;59.332;18.034;2024-02-16T09:05:42;1.38;;;1.27;;
10823;SDS011;39116;59.332;18.034;2024-02-16T09:08:04;1.52;;;1.20;;
10823;SDS011;39116;59.332;18.034;2024-02-16T09:10:26;1.20;;;1.10;;
10823;SDS011;39116;59.332;18.034;2024-02-16T09:12:48;1.90;;;1.60;;
10823;SDS011;39116;59.332;18.034;2024-02-16T09:15:12;1.52;;;1.27;;
10823;SDS011;39116;59.332;18.034;2024-02-16T09:17:35;1.55;;;1.20;;
10823;SDS011;39116;59.332;18.034;2024-02-16T09:19:56;1.63;;;1.20;;
10823;SDS011;39116;59.332;18.034;2024-02-16T09:22:18;1.50;;;1.33;;
10823;SDS011;39116;59.332;18.034;2024-02-16T09:24:40;1.63;;;1.30;;
10823;SDS011;39116;59.332;18.034;2024-02-16T09:27:02;1.35;;;1.25;;
10823;SDS011;39116;59.332;18.034;2024-02-16T09:29:25;2.13;;;1.20;;
10823;SDS011;39116;59.332;18.034;2024-02-16T09:31:48;1.40;;;1.30;;
10823;SDS011;39116;59.332;18.034;2024-02-16T09:34:11;1.40;;;1.17;;
10823;SDS011;39116;59.332;18.034;2024-02-16T09:36:33;1.92;;;1.20;;
10823;SDS011;39116;59.332;18.034;2024-02-16T09:38:56;1.23;;;1.00;;
10823;SDS011;39116;59.332;18.034;2024-02-16T09:41:18;1.92;;;1.27;;
10823;SDS011;39116;59.332;18.034;2024-02-16T09:43:40;3.42;;;1.30;;
10823;SDS011;39116;59.332;18.034;2024-02-16T09:46:01;2.63;;;1.10;;
10823;SDS011;39116;59.332;18.034;2024-02-16T09:48:24;1.38;;;1.27;;
10823;SDS011;39116;59.332;18.034;2024-02-16T09:50:48;2.00;;;1.33;;
10823;SDS011;39116;59.332;18.034;2024-02-16T09:53:11;1.67;;;1.58;;
10823;SDS011;39116;59.332;18.034;2024-02-16T09:55:33;2.15;;;1.55;;
10823;SDS011;39116;59.332;18.034;2024-02-16T09:58:00;3.20;;;1.40;;
10823;SDS011;39116;59.332;18.034;2024-02-16T10:00:22;3.75;;;2.10;;
10823;SDS011;39116;59.332;18.034;2024-02-16T10:02:44;2.97;;;1.65;;
10823;SDS011;39116;59.332;18.034;2024-02-16T10:05:09;1.83;;;1.35;;
10823;SDS011;39116;59.332;18.034;2024-02-16T10:07:32;3.30;;;1.27;;
10823;SDS011;39116;59.332;18.034;2024-02-16T10:09:53;3.05;;;1.70;;
10823;SDS011;39116;59.332;18.034;2024-02-16T10:12:17;2.50;;;1.70;;
10823;SDS011;39116;59.332;18.034;2024-02-16T10:14:39;2.40;;;1.60;;
10823;SDS011;39116;59.332;18.034;2024-02-16T10:17:02;2.30;;;1.50;;
10823;SDS011;39116;59.332;18.034;2024-02-16T10:19:24;1.55;;;1.45;;
10823;SDS011;39116;59.332;18.034;2024-02-16T10:21:45;2.38;;;1.30;;
10823;SDS011;39116;59.332;18.034;2024-02-16T10:24:09;1.60;;;1.30;;
10823;SDS011;39116;59.332;18.034;2024-02-16T10:26:31;2.83;;;1.40;;
10823;SDS011;39116;59.332;18.034;2024-02-16T10:28:53;1.40;;;1.30;;
10823;SDS011;39116;59.332;18.034;2024-02-16T10:31:16;1.88;;;1.40;;
10823;SDS011;39116;59.332;18.034;2024-02-16T10:33:38;1.58;;;1.20;;
10823;SDS011;39116;59.332;18.034;2024-02-16T10:36:01;3.63;;;1.52;;
10823;SDS011;39116;59.332;18.034;2024-02-16T10:38:25;1.40;;;1.30;;
10823;SDS011;39116;59.332;18.034;2024-02-16T10:40:49;3.67;;;1.45;;
10823;SDS011;39116;59.332;18.034;2024-02-16T10:43:12;1.48;;;1.30;;
10823;SDS011;39116;59.332;18.034;2024-02-16T10:45:35;1.40;;;1.30;;
10823;SDS011;39116;59.332;18.034;2024-02-16T10:47:56;2.58;;;1.70;;
10823;SDS011;39116;59.332;18.034;2024-02-16T10:50:18;2.50;;;1.42;;
10823;SDS011;39116;59.332;18.034;2024-02-16T10:52:41;2.17;;;1.30;;
10823;SDS011;39116;59.332;18.034;2024-02-16T10:55:04;1.77;;;1.40;;
10823;SDS011;39116;59.332;18.034;2024-02-16T10:57:28;1.50;;;1.00;;
10823;SDS011;39116;59.332;18.034;2024-02-16T10:59:52;1.25;;;1.15;;
10823;SDS011;39116;59.332;18.034;2024-02-16T11:02:15;2.03;;;1.13;;
10823;SDS011;39116;59.332;18.034;2024-02-16T11:04:36;1.17;;;1.08;;
10823;SDS011;39116;59.332;18.034;2024-02-16T11:06:59;2.28;;;1.60;;
10823;SDS011;39116;59.332;18.034;2024-02-16T11:09:27;3.58;;;2.05;;
10823;SDS011;39116;59.332;18.034;2024-02-16T11:11:51;2.03;;;1.20;;
10823;SDS011;39116;59.332;18.034;2024-02-16T11:14:16;1.85;;;1.20;;
10823;SDS011;39116;59.332;18.034;2024-02-16T11:16:43;2.45;;;1.65;;
10823;SDS011;39116;59.332;18.034;2024-02-16T11:19:04;1.42;;;1.15;;
10823;SDS011;39116;59.332;18.034;2024-02-16T11:21:28;1.30;;;1.20;;
10823;SDS011;39116;59.332;18.034;2024-02-16T11:23:50;1.50;;;1.40;;
10823;SDS011;39116;59.332;18.034;2024-02-16T11:26:12;2.35;;;1.33;;
10823;SDS011;39116;59.332;18.034;2024-02-16T11:28:35;2.65;;;1.55;;
10823;SDS011;39116;59.332;18.034;2024-02-16T11:30:58;2.90;;;1.88;;
10823;SDS011;39116;59.332;18.034;2024-02-16T11:33:20;5.13;;;2.05;;
10823;SDS011;39116;59.332;18.034;2024-02-16T11:35:41;3.78;;;2.60;;
10823;SDS011;39116;59.332;18.034;2024-02-16T11:38:13;5.30;;;2.17;;
10823;SDS011;39116;59.332;18.034;2024-02-16T11:40:35;3.30;;;2.22;;
10823;SDS011;39116;59.332;18.034;2024-02-16T11:42:57;2.47;;;2.15;;
10823;SDS011;39116;59.332;18.034;2024-02-16T11:45:19;3.33;;;2.13;;
10823;SDS011;39116;59.332;18.034;2024-02-16T11:47:42;2.80;;;2.10;;
10823;SDS011;39116;59.332;18.034;2024-02-16T11:50:04;5.95;;;2.20;;
10823;SDS011;39116;59.332;18.034;2024-02-16T11:52:26;3.67;;;2.15;;
10823;SDS011;39116;59.332;18.034;2024-02-16T11:54:48;2.15;;;1.70;;
10823;SDS011;39116;59.332;18.034;2024-02-16T11:57:09;3.75;;;1.80;;
10823;SDS011;39116;59.332;18.034;2024-02-16T11:59:31;4.15;;;2.00;;
10823;SDS011;39116;59.332;18.034;2024-02-16T12:01:53;2.10;;;1.73;;
10823;SDS011;39116;59.332;18.034;2024-02-16T12:04:20;1.60;;;1.50;;
10823;SDS011;39116;59.332;18.034;2024-02-16T12:06:42;3.88;;;2.30;;
10823;SDS011;39116;59.332;18.034;2024-02-16T12:09:07;3.20;;;1.90;;
10823;SDS011;39116;59.332;18.034;2024-02-16T12:11:30;4.30;;;2.33;;
10823;SDS011;39116;59.332;18.034;2024-02-16T12:13:52;1.92;;;1.75;;
10823;SDS011;39116;59.332;18.034;2024-02-16T12:16:13;2.22;;;1.70;;
10823;SDS011;39116;59.332;18.034;2024-02-16T12:18:35;2.15;;;1.35;;
10823;SDS011;39116;59.332;18.034;2024-02-16T12:20:59;2.10;;;1.90;;
10823;SDS011;39116;59.332;18.034;2024-02-16T12:23:21;1.40;;;1.30;;
10823;SDS011;39116;59.332;18.034;2024-02-16T12:25:42;2.28;;;1.63;;
10823;SDS011;39116;59.332;18.034;2024-02-16T12:28:04;1.77;;;1.27;;
10823;SDS011;39116;59.332;18.034;2024-02-16T12:30:28;1.60;;;1.48;;
10823;SDS011;39116;59.332;18.034;2024-02-16T12:32:49;2.17;;;1.50;;
10823;SDS011;39116;59.332;18.034;2024-02-16T12:35:11;2.33;;;1.77;;
10823;SDS011;39116;59.332;18.034;2024-02-16T12:37:34;1.40;;;1.30;;
10823;SDS011;39116;59.332;18.034;2024-02-16T12:39:57;2.25;;;1.50;;
10823;SDS011;39116;59.332;18.034;2024-02-16T12:42:19;1.40;;;1.30;;
10823;SDS011;39116;59.332;18.034;2024-02-16T12:44:40;2.30;;;1.40;;
10823;SDS011;39116;59.332;18.034;2024-02-16T12:47:02;2.28;;;1.40;;
10823;SDS011;39116;59.332;18.034;2024-02-16T12:49:24;1.98;;;1.45;;
10823;SDS011;39116;59.332;18.034;2024-02-16T12:51:46;2.03;;;1.40;;
10823;SDS011;39116;59.332;18.034;2024-02-16T12:54:10;1.42;;;1.08;;
10823;SDS011;39116;59.332;18.034;2024-02-16T12:56:34;1.35;;;1.25;;
10823;SDS011;39116;59.332;18.034;2024-02-16T12:58:55;2.47;;;1.58;;
10823;SDS011;39116;59.332;18.034;2024-02-16T13:01:20;2.03;;;1.42;;
10823;SDS011;39116;59.332;18.034;2024-02-16T13:03:42;1.50;;;1.40;;
10823;SDS011;39116;59.332;18.034;2024-02-16T13:06:04;2.05;;;1.20;;
10823;SDS011;39116;59.332;18.034;2024-02-16T13:08:26;3.15;;;1.40;;
10823;SDS011;39116;59.332;18.034;2024-02-16T13:10:49;3.13;;;1.17;;
10823;SDS011;39116;59.332;18.034;2024-02-16T13:13:11;1.65;;;1.30;;
10823;SDS011;39116;59.332;18.034;2024-02-16T13:15:32;1.10;;;1.00;;
10823;SDS011;39116;59.332;18.034;2024-02-16T13:17:54;1.65;;;1.20;;
10823;SDS011;39116;59.332;18.034;2024-02-16T13:20:15;1.58;;;1.10;;
10823;SDS011;39116;59.332;18.034;2024-02-16T13:22:37;1.27;;;1.17;;
10823;SDS011;39116;59.332;18.034;2024-02-16T13:24:59;1.10;;;1.00;;
10823;SDS011;39116;59.332;18.034;2024-02-16T13:27:22;1.00;;;0.90;;
10823;SDS011;39116;59.332;18.034;2024-02-16T13:29:44;2.17;;;1.17;;
10823;SDS011;39116;59.332;18.034;2024-02-16T13:32:05;1.50;;;1.10;;
10823;SDS011;39116;59.332;18.034;2024-02-16T13:34:27;2.33;;;1.27;;
10823;SDS011;39116;59.332;18.034;2024-02-16T13:36:49;1.63;;;1.30;;
10823;SDS011;39116;59.332;18.034;2024-02-16T13:39:11;3.20;;;2.00;;
10823;SDS011;39116;59.332;18.034;2024-02-16T13:41:34;1.30;;;1.20;;
10823;SDS011;39116;59.332;18.034;2024-02-16T13:43:57;1.92;;;1.10;;
10823;SDS011;39116;59.332;18.034;2024-02-16T13:46:19;1.52;;;1.38;;
10823;SDS011;39116;59.332;18.034;2024-02-16T13:48:41;2.25;;;1.50;;
10823;SDS011;39116;59.332;18.034;2024-02-16T13:51:03;2.63;;;1.73;;
10823;SDS011;39116;59.332;18.034;2024-02-16T13:53:27;2.42;;;1.58;;
10823;SDS011;39116;59.332;18.034;2024-02-16T13:55:48;2.20;;;2.00;;
10823;SDS011;39116;59.332;18.034;2024-02-16T13:58:10;5.10;;;1.90;;
10823;SDS011;39116;59.332;18.034;2024-02-16T14:00:33;3.67;;;1.80;;